Terminal Aerodrome Forecast
Issued by NWS

Home | Current Version | Previous Version | Text Only | Print | Product List | Glossary On
Versions: 1 2 3 4 5 6 7 8 9 10 11 12 13
000
FTUS45 KLKN 042327
TAFELY
TAF
KELY 042327Z 0500/0524 18011KT P6SM BKN120 BKN250
     FM050600 19008KT P6SM SCT050 BKN200
     FM050900 20008KT P6SM VCSH OVC050
     FM051200 21006KT P6SM -SN OVC030
     FM051600 29005KT P6SM BKN035 BKN150=

USA.gov is the U.S. government's official web portal to all federal, state and local government web resources and services.